Time;durP1;ratioP1;P1;durP2;ratioP2;P2;SDS_P1;SDS_P2;PMS_P1;PMS_P2;Temp;Humidity;BMP_temperature;BMP_pressure;BME280_temperature;BME280_humidity;BME280_pressure;Samples;Min_cycle;Max_cycle;Signal;HPM_P1;HPM_P2
2022/07/22 00:00:29;;;;;;;14.88;8.82;;;;;;;;;;5041580;28;20054;-78
2022/07/22 00:02:54;;;;;;;12.40;8.75;;;;;;;;;;5033987;28;20029;-77
2022/07/22 00:05:19;;;;;;;11.90;9.25;;;;;;;;;;5031769;28;20033;-76
2022/07/22 00:07:45;;;;;;;12.98;9.23;;;;;;;;;;5029201;28;20021;-76
2022/07/22 00:10:13;;;;;;;13.73;9.10;;;;;;;;;;5040036;28;20037;-75
2022/07/22 00:12:39;;;;;;;9.15;6.40;;;;;;;;;;5043626;28;20108;-76
2022/07/22 00:15:05;;;;;;;8.95;5.90;;;;;;;;;;5034081;28;20021;-75
2022/07/22 00:17:30;;;;;;;10.73;7.47;;;;;;;;;;5027825;28;20041;-76
2022/07/22 00:19:55;;;;;;;10.40;6.90;;;;;;;;;;5034549;28;20445;-77
2022/07/22 00:22:21;;;;;;;7.30;6.57;;;;;;;;;;5036860;28;20028;-76
2022/07/22 00:24:46;;;;;;;8.00;6.57;;;;;;;;;;5043482;28;20031;-76
2022/07/22 00:27:11;;;;;;;7.93;6.03;;;;;;;;;;5040574;28;20032;-76
2022/07/22 00:29:37;;;;;;;7.85;6.45;;;;;;;;;;5043568;28;20035;-76
2022/07/22 00:32:02;;;;;;;12.13;8.30;;;;;;;;;;5034105;28;20067;-78
2022/07/22 00:34:28;;;;;;;8.23;7.38;;;;;;;;;;5027769;28;20071;-77
2022/07/22 00:36:53;;;;;;;10.70;6.78;;;;;;;;;;5030612;28;20318;-77
2022/07/22 00:39:18;;;;;;;10.35;6.55;;;;;;;;;;5029972;28;20029;-80
2022/07/22 00:41:44;;;;;;;10.95;7.97;;;;;;;;;;5039450;28;20055;-76
2022/07/22 00:44:09;;;;;;;10.07;8.20;;;;;;;;;;5028367;28;20421;-76
2022/07/22 00:46:36;;;;;;;11.73;7.85;;;;;;;;;;5028017;28;20035;-76
2022/07/22 00:49:03;;;;;;;10.57;6.90;;;;;;;;;;5036426;28;20020;-79
2022/07/22 00:51:29;;;;;;;8.02;6.75;;;;;;;;;;5023686;28;20363;-78
2022/07/22 00:53:56;;;;;;;8.40;6.63;;;;;;;;;;5030022;28;20109;-80
2022/07/22 00:56:22;;;;;;;7.55;6.75;;;;;;;;;;5031735;28;20116;-77
2022/07/22 00:58:48;;;;;;;8.45;6.63;;;;;;;;;;5042407;28;20116;-77
2022/07/22 01:01:14;;;;;;;10.45;7.20;;;;;;;;;;5037324;28;20095;-76
2022/07/22 01:03:39;;;;;;;7.63;6.65;;;;;;;;;;5028219;28;20032;-77
2022/07/22 01:06:05;;;;;;;7.22;6.30;;;;;;;;;;5029398;28;20028;-77
2022/07/22 01:08:31;;;;;;;7.97;6.00;;;;;;;;;;5035055;28;20055;-76
2022/07/22 01:11:07;;;;;;;6.05;5.38;;;;;;;;;;5043031;28;20455;-77
2022/07/22 01:13:32;;;;;;;6.03;5.35;;;;;;;;;;5042514;28;20187;-76
2022/07/22 01:15:57;;;;;;;6.82;5.53;;;;;;;;;;5028703;28;20472;-76
2022/07/22 01:18:23;;;;;;;7.78;5.97;;;;;;;;;;5035260;28;20021;-77
2022/07/22 01:20:48;;;;;;;10.85;7.18;;;;;;;;;;5029177;28;20040;-76
2022/07/22 01:23:13;;;;;;;6.95;6.25;;;;;;;;;;5041900;28;20025;-79
2022/07/22 01:25:39;;;;;;;7.57;6.05;;;;;;;;;;5042516;28;20130;-76
2022/07/22 01:28:04;;;;;;;8.35;6.15;;;;;;;;;;5042634;28;20117;-76
2022/07/22 01:30:29;;;;;;;7.05;6.35;;;;;;;;;;5040739;28;20025;-77
2022/07/22 01:32:55;;;;;;;9.52;6.13;;;;;;;;;;5030417;28;20120;-78
2022/07/22 01:35:20;;;;;;;6.47;5.88;;;;;;;;;;5030851;28;20036;-78
2022/07/22 01:37:45;;;;;;;8.13;6.35;;;;;;;;;;5029958;28;20104;-74
2022/07/22 01:40:11;;;;;;;9.32;5.75;;;;;;;;;;5041392;28;20035;-74
2022/07/22 01:42:36;;;;;;;7.43;6.18;;;;;;;;;;5041170;28;20032;-76
2022/07/22 01:45:02;;;;;;;10.10;7.65;;;;;;;;;;5041315;28;20485;-75
2022/07/22 01:47:27;;;;;;;10.73;7.82;;;;;;;;;;5027463;28;20028;-77
2022/07/22 01:49:53;;;;;;;8.90;6.78;;;;;;;;;;5028032;28;20032;-75
2022/07/22 01:52:18;;;;;;;11.63;8.25;;;;;;;;;;5035281;28;20525;-74
2022/07/22 01:54:43;;;;;;;10.25;7.53;;;;;;;;;;5035526;28;20359;-78
2022/07/22 01:57:09;;;;;;;9.75;7.43;;;;;;;;;;5035173;28;20035;-76
2022/07/22 01:59:34;;;;;;;11.25;7.70;;;;;;;;;;5030542;28;20025;-76
2022/07/22 02:01:59;;;;;;;7.93;6.88;;;;;;;;;;5029396;28;21099;-76
2022/07/22 02:04:25;;;;;;;6.35;5.72;;;;;;;;;;5037160;28;20017;-76
2022/07/22 02:06:50;;;;;;;7.22;5.97;;;;;;;;;;5032501;28;20425;-76
2022/07/22 02:09:16;;;;;;;10.18;6.40;;;;;;;;;;5040538;28;20178;-76
2022/07/22 02:11:42;;;;;;;6.88;5.82;;;;;;;;;;5041973;28;20037;-76
2022/07/22 02:14:07;;;;;;;6.20;5.53;;;;;;;;;;5041048;28;20455;-77
2022/07/22 02:16:32;;;;;;;6.40;5.70;;;;;;;;;;5027399;28;20029;-78
2022/07/22 02:18:58;;;;;;;6.68;5.80;;;;;;;;;;5023965;28;20044;-75
2022/07/22 02:21:23;;;;;;;7.32;5.68;;;;;;;;;;5029444;28;20037;-75
2022/07/22 02:23:49;;;;;;;8.13;5.63;;;;;;;;;;5035827;28;20025;-73
2022/07/22 02:26:15;;;;;;;7.25;5.70;;;;;;;;;;5044718;28;20117;-73
2022/07/22 02:28:40;;;;;;;6.00;5.50;;;;;;;;;;5044802;28;20025;-75
2022/07/22 02:31:06;;;;;;;6.32;5.72;;;;;;;;;;5039078;28;20453;-74
2022/07/22 02:33:31;;;;;;;6.00;5.40;;;;;;;;;;5031733;28;20086;-73
2022/07/22 02:35:56;;;;;;;6.80;5.13;;;;;;;;;;5031332;28;20989;-76
2022/07/22 02:38:22;;;;;;;6.40;5.60;;;;;;;;;;5040986;28;20040;-73
2022/07/22 02:40:47;;;;;;;8.57;5.60;;;;;;;;;;5044685;28;20044;-73
2022/07/22 02:43:13;;;;;;;6.30;5.53;;;;;;;;;;5041590;28;20363;-73
2022/07/22 02:45:38;;;;;;;7.43;5.88;;;;;;;;;;5030225;28;20025;-73
2022/07/22 02:48:04;;;;;;;10.80;6.18;;;;;;;;;;5035055;28;20495;-73
2022/07/22 02:50:29;;;;;;;6.70;5.25;;;;;;;;;;5036027;28;20028;-73
2022/07/22 02:52:54;;;;;;;7.75;5.75;;;;;;;;;;5038587;28;20044;-75
2022/07/22 02:55:20;;;;;;;7.57;5.78;;;;;;;;;;5042683;28;20035;-73
2022/07/22 02:57:45;;;;;;;6.00;5.45;;;;;;;;;;5044010;28;20459;-75
2022/07/22 03:00:12;;;;;;;7.47;5.97;;;;;;;;;;5043483;28;20111;-73
2022/07/22 03:02:38;;;;;;;8.23;5.38;;;;;;;;;;5031169;28;20476;-73
2022/07/22 03:05:04;;;;;;;6.57;5.97;;;;;;;;;;5037305;28;20017;-74
2022/07/22 03:07:29;;;;;;;7.13;6.03;;;;;;;;;;5031316;28;20029;-74
2022/07/22 03:09:54;;;;;;;6.90;5.90;;;;;;;;;;5044253;28;20028;-74
2022/07/22 03:12:20;;;;;;;7.70;5.70;;;;;;;;;;5043945;28;20064;-73
2022/07/22 03:14:45;;;;;;;8.20;6.07;;;;;;;;;;5044129;28;20344;-74
2022/07/22 03:17:10;;;;;;;9.43;6.10;;;;;;;;;;5031369;28;20033;-73
2022/07/22 03:19:36;;;;;;;6.15;5.55;;;;;;;;;;5041075;28;20068;-73
2022/07/22 03:22:01;;;;;;;6.28;5.72;;;;;;;;;;5035289;28;20433;-73
2022/07/22 03:24:26;;;;;;;6.53;5.53;;;;;;;;;;5043482;28;20325;-74
2022/07/22 03:26:52;;;;;;;6.70;5.70;;;;;;;;;;5035719;28;20036;-74
2022/07/22 03:29:17;;;;;;;9.52;5.93;;;;;;;;;;5033727;28;20021;-76
2022/07/22 03:31:42;;;;;;;6.80;5.78;;;;;;;;;;5034251;28;20472;-76
2022/07/22 03:34:08;;;;;;;7.35;5.97;;;;;;;;;;5034068;28;20140;-76
2022/07/22 03:36:33;;;;;;;6.57;5.85;;;;;;;;;;5031747;28;20029;-78
2022/07/22 03:38:58;;;;;;;7.35;5.40;;;;;;;;;;5042914;28;20408;-75
2022/07/22 03:41:24;;;;;;;7.45;5.57;;;;;;;;;;5043795;28;20073;-75
2022/07/22 03:43:49;;;;;;;6.38;5.75;;;;;;;;;;5043058;28;21179;-75
2022/07/22 03:46:15;;;;;;;8.48;5.75;;;;;;;;;;5038290;28;20044;-75
2022/07/22 03:48:40;;;;;;;6.65;5.82;;;;;;;;;;5036265;28;20492;-74
2022/07/22 03:51:05;;;;;;;7.93;5.50;;;;;;;;;;5032998;28;20033;-75
2022/07/22 03:53:32;;;;;;;6.53;5.85;;;;;;;;;;5028272;28;20041;-72
2022/07/22 03:55:58;;;;;;;11.55;9.27;;;;;;;;;;5031883;28;20638;-75
2022/07/22 03:58:24;;;;;;;15.63;11.23;;;;;;;;;;5030093;28;20032;-76
2022/07/22 04:00:49;;;;;;;16.65;10.82;;;;;;;;;;5024733;28;20036;-75
2022/07/22 04:03:15;;;;;;;11.30;8.88;;;;;;;;;;5027793;28;20067;-73
2022/07/22 04:05:40;;;;;;;10.50;8.70;;;;;;;;;;5031282;28;20033;-75
2022/07/22 04:08:05;;;;;;;9.38;7.63;;;;;;;;;;5029896;28;20459;-75
2022/07/22 04:10:31;;;;;;;8.10;5.88;;;;;;;;;;5028335;28;20049;-73
2022/07/22 04:12:56;;;;;;;7.18;6.10;;;;;;;;;;5030915;28;20052;-76
2022/07/22 04:15:21;;;;;;;6.55;5.80;;;;;;;;;;5028941;28;20459;-74
2022/07/22 04:17:47;;;;;;;9.02;5.97;;;;;;;;;;5030336;28;20142;-73
2022/07/22 04:20:13;;;;;;;9.13;6.28;;;;;;;;;;5029288;28;20033;-77
2022/07/22 04:22:38;;;;;;;8.02;6.65;;;;;;;;;;5030960;28;20032;-74
2022/07/22 04:25:04;;;;;;;7.22;5.88;;;;;;;;;;5042368;28;20115;-76
2022/07/22 04:27:29;;;;;;;7.55;6.75;;;;;;;;;;5042241;28;20104;-74
2022/07/22 04:29:55;;;;;;;10.10;6.20;;;;;;;;;;5042536;28;20124;-75
2022/07/22 04:32:20;;;;;;;10.48;6.70;;;;;;;;;;5041926;28;20056;-75
2022/07/22 04:34:46;;;;;;;12.07;6.70;;;;;;;;;;5041736;28;20075;-79
2022/07/22 04:37:11;;;;;;;10.07;6.60;;;;;;;;;;5040509;28;20037;-75
2022/07/22 04:39:36;;;;;;;9.93;7.50;;;;;;;;;;5041068;28;20322;-75
2022/07/22 04:42:02;;;;;;;10.07;6.97;;;;;;;;;;5028513;28;20029;-75
2022/07/22 04:44:27;;;;;;;8.73;6.93;;;;;;;;;;5041800;28;20068;-77
2022/07/22 04:46:52;;;;;;;8.55;6.88;;;;;;;;;;5030212;28;20363;-76
2022/07/22 04:49:18;;;;;;;8.45;6.32;;;;;;;;;;5042530;28;20034;-75
2022/07/22 04:51:43;;;;;;;9.65;5.78;;;;;;;;;;5040709;28;20037;-76
2022/07/22 04:54:08;;;;;;;7.68;5.90;;;;;;;;;;5041013;28;20063;-76
2022/07/22 04:56:34;;;;;;;6.75;5.72;;;;;;;;;;5041286;28;20566;-74
2022/07/22 04:58:59;;;;;;;6.47;5.88;;;;;;;;;;5040707;28;20037;-74
2022/07/22 05:01:24;;;;;;;7.75;6.32;;;;;;;;;;5041403;28;20033;-74
2022/07/22 05:03:51;;;;;;;15.15;10.63;;;;;;;;;;5030620;28;20135;-74
2022/07/22 05:06:17;;;;;;;28.83;18.15;;;;;;;;;;5038199;28;20025;-73
2022/07/22 05:08:43;;;;;;;26.20;17.85;;;;;;;;;;5036145;28;20044;-74
2022/07/22 05:11:08;;;;;;;23.27;16.08;;;;;;;;;;5027084;28;20047;-74
2022/07/22 05:13:33;;;;;;;17.90;13.82;;;;;;;;;;5028951;28;20448;-74
2022/07/22 05:16:02;;;;;;;18.20;12.32;;;;;;;;;;5028121;28;20454;-72
2022/07/22 05:18:28;;;;;;;11.07;9.63;;;;;;;;;;5025916;28;20112;-73
2022/07/22 05:20:53;;;;;;;13.45;9.93;;;;;;;;;;5027038;28;20519;-72
2022/07/22 05:23:18;;;;;;;9.07;8.18;;;;;;;;;;5028729;28;20024;-71
2022/07/22 05:25:44;;;;;;;10.88;7.80;;;;;;;;;;5032304;28;20021;-77
2022/07/22 05:28:09;;;;;;;11.32;7.18;;;;;;;;;;5040750;28;20456;-72
2022/07/22 05:30:34;;;;;;;8.90;6.90;;;;;;;;;;5040776;28;20371;-75
2022/07/22 05:33:00;;;;;;;9.43;6.18;;;;;;;;;;5040739;28;20039;-73
2022/07/22 05:35:25;;;;;;;7.15;6.15;;;;;;;;;;5036684;28;20147;-74
2022/07/22 05:37:50;;;;;;;11.95;6.35;;;;;;;;;;5034218;28;20036;-74
2022/07/22 05:40:16;;;;;;;6.30;5.63;;;;;;;;;;5032543;28;20444;-75
2022/07/22 05:42:41;;;;;;;8.25;5.97;;;;;;;;;;5038957;28;20040;-75
2022/07/22 05:45:07;;;;;;;11.45;6.60;;;;;;;;;;5039418;28;20028;-74
2022/07/22 05:47:32;;;;;;;6.93;6.15;;;;;;;;;;5034279;28;20104;-74
2022/07/22 05:49:57;;;;;;;9.85;6.00;;;;;;;;;;5035853;28;20028;-73
2022/07/22 05:52:23;;;;;;;8.65;6.43;;;;;;;;;;5040832;28;20056;-73
2022/07/22 05:54:49;;;;;;;11.27;6.50;;;;;;;;;;5037891;28;20452;-70
2022/07/22 05:57:15;;;;;;;8.68;6.35;;;;;;;;;;5027165;28;20024;-72
2022/07/22 05:59:41;;;;;;;6.82;5.53;;;;;;;;;;5039725;28;20078;-75
2022/07/22 06:02:06;;;;;;;8.60;6.57;;;;;;;;;;5036420;28;20029;-73
2022/07/22 06:04:32;;;;;;;8.10;6.35;;;;;;;;;;5027277;28;20044;-72
2022/07/22 06:06:57;;;;;;;8.65;7.13;;;;;;;;;;5029449;28;20298;-72
2022/07/22 06:09:22;;;;;;;7.47;6.40;;;;;;;;;;5027501;28;20033;-71
2022/07/22 06:11:48;;;;;;;11.27;6.28;;;;;;;;;;5036852;28;20036;-70
2022/07/22 06:14:13;;;;;;;6.97;5.43;;;;;;;;;;5040164;28;20032;-70
2022/07/22 06:16:39;;;;;;;6.40;5.78;;;;;;;;;;5039676;28;20021;-72
2022/07/22 06:19:04;;;;;;;11.35;6.25;;;;;;;;;;5040013;28;20032;-72
2022/07/22 06:21:29;;;;;;;6.95;5.85;;;;;;;;;;5027239;28;20029;-74
2022/07/22 06:23:55;;;;;;;7.70;5.82;;;;;;;;;;5027737;28;20078;-72
2022/07/22 06:26:20;;;;;;;10.63;6.30;;;;;;;;;;5026195;28;20032;-72
2022/07/22 06:28:45;;;;;;;9.00;5.85;;;;;;;;;;5035481;28;20021;-74
2022/07/22 06:31:11;;;;;;;6.82;5.32;;;;;;;;;;5030992;28;20127;-74
2022/07/22 06:33:37;;;;;;;8.35;5.50;;;;;;;;;;5041707;28;20028;-71
2022/07/22 06:36:03;;;;;;;7.60;5.32;;;;;;;;;;5039098;28;20352;-79
2022/07/22 06:38:28;;;;;;;8.25;6.00;;;;;;;;;;5026116;28;20437;-79
2022/07/22 06:40:54;;;;;;;6.20;5.25;;;;;;;;;;5039243;28;20108;-77
2022/07/22 06:43:19;;;;;;;6.88;5.78;;;;;;;;;;5028132;28;20751;-71
2022/07/22 06:45:44;;;;;;;7.75;5.32;;;;;;;;;;5030081;28;20032;-75
2022/07/22 06:48:10;;;;;;;8.68;5.40;;;;;;;;;;5029652;28;20043;-71
2022/07/22 06:50:35;;;;;;;11.23;5.90;;;;;;;;;;5028030;28;20463;-71
2022/07/22 06:53:00;;;;;;;6.93;5.80;;;;;;;;;;5032196;28;20417;-72
2022/07/22 06:55:26;;;;;;;8.65;4.78;;;;;;;;;;5032506;28;20083;-70
2022/07/22 06:57:51;;;;;;;11.10;4.95;;;;;;;;;;5030923;28;20029;-72
2022/07/22 07:00:17;;;;;;;6.78;5.28;;;;;;;;;;5040257;28;20836;-76
2022/07/22 07:02:44;;;;;;;9.95;5.53;;;;;;;;;;5039511;28;20125;-72
2022/07/22 07:05:09;;;;;;;6.05;5.20;;;;;;;;;;5028951;28;20021;-71
2022/07/22 07:07:35;;;;;;;5.68;4.95;;;;;;;;;;5029955;28;20436;-71
2022/07/22 07:10:00;;;;;;;14.18;5.20;;;;;;;;;;5040797;28;20021;-71
2022/07/22 07:12:25;;;;;;;6.95;5.00;;;;;;;;;;5044760;28;20033;-71
2022/07/22 07:14:51;;;;;;;6.85;4.82;;;;;;;;;;5034981;28;20028;-71
2022/07/22 07:17:16;;;;;;;6.38;5.50;;;;;;;;;;5043076;28;20439;-72
2022/07/22 07:19:42;;;;;;;8.15;5.15;;;;;;;;;;5043832;28;20062;-75
2022/07/22 07:22:07;;;;;;;7.32;5.60;;;;;;;;;;5043392;28;20037;-72
2022/07/22 07:24:32;;;;;;;7.60;5.60;;;;;;;;;;5035931;28;21205;-77
2022/07/22 07:26:58;;;;;;;7.13;5.78;;;;;;;;;;5036388;28;20033;-73
2022/07/22 07:29:23;;;;;;;6.82;5.25;;;;;;;;;;5042816;28;20108;-71
2022/07/22 07:31:49;;;;;;;6.80;4.88;;;;;;;;;;5028368;28;20341;-71
2022/07/22 07:34:14;;;;;;;6.93;5.35;;;;;;;;;;5033554;28;20029;-73
2022/07/22 07:36:39;;;;;;;8.45;5.38;;;;;;;;;;5033209;28;20040;-70
2022/07/22 07:39:05;;;;;;;11.07;5.30;;;;;;;;;;5042845;28;20024;-71
2022/07/22 07:41:31;;;;;;;12.55;5.28;;;;;;;;;;5044802;28;20440;-72
2022/07/22 07:43:56;;;;;;;7.88;5.10;;;;;;;;;;5043591;28;20422;-74
2022/07/22 07:46:22;;;;;;;8.25;5.40;;;;;;;;;;5042803;28;20029;-72
2022/07/22 07:48:48;;;;;;;17.60;6.05;;;;;;;;;;5040781;28;20147;-73
2022/07/22 07:51:13;;;;;;;7.40;5.13;;;;;;;;;;5038814;28;20036;-72
2022/07/22 07:53:39;;;;;;;6.47;5.55;;;;;;;;;;5043125;28;20049;-71
2022/07/22 07:56:05;;;;;;;6.03;4.85;;;;;;;;;;5043397;28;20098;-76
2022/07/22 07:58:30;;;;;;;7.93;4.72;;;;;;;;;;5041034;28;20040;-76
2022/07/22 08:00:55;;;;;;;6.13;5.30;;;;;;;;;;5030032;28;20029;-72
2022/07/22 08:03:21;;;;;;;5.97;4.75;;;;;;;;;;5029944;28;20032;-71
2022/07/22 08:05:46;;;;;;;6.07;4.75;;;;;;;;;;5030129;28;20020;-73
2022/07/22 08:08:12;;;;;;;5.97;4.75;;;;;;;;;;5036191;28;20029;-76
2022/07/22 08:10:37;;;;;;;8.80;4.97;;;;;;;;;;5046524;28;20464;-73
2022/07/22 08:13:03;;;;;;;5.63;5.00;;;;;;;;;;5050685;28;20032;-76
2022/07/22 08:15:29;;;;;;;7.05;4.18;;;;;;;;;;5044986;28;20009;-78
2022/07/22 08:17:55;;;;;;;6.68;4.60;;;;;;;;;;5036899;28;20037;-77
2022/07/22 08:20:20;;;;;;;7.53;4.60;;;;;;;;;;5045343;28;20074;-74
2022/07/22 08:22:46;;;;;;;11.38;4.75;;;;;;;;;;5044169;28;20029;-74
2022/07/22 08:25:11;;;;;;;5.43;4.72;;;;;;;;;;5038001;28;20036;-72
2022/07/22 08:27:36;;;;;;;10.25;5.03;;;;;;;;;;5031583;28;20037;-73
2022/07/22 08:30:05;;;;;;;8.02;4.75;;;;;;;;;;5029951;28;20080;-73
2022/07/22 08:32:31;;;;;;;7.32;4.30;;;;;;;;;;5030317;28;20037;-71
2022/07/22 08:34:57;;;;;;;8.52;4.80;;;;;;;;;;5030933;28;20359;-73
2022/07/22 08:37:22;;;;;;;5.47;4.20;;;;;;;;;;5031796;28;20033;-81
2022/07/22 08:39:47;;;;;;;9.07;4.38;;;;;;;;;;5030692;28;20040;-76
2022/07/22 08:42:13;;;;;;;5.95;4.60;;;;;;;;;;5031509;28;20041;-76
2022/07/22 08:44:39;;;;;;;5.55;4.05;;;;;;;;;;5036593;28;20028;-75
2022/07/22 08:47:04;;;;;;;9.50;4.90;;;;;;;;;;5032039;28;20223;-77
2022/07/22 08:49:30;;;;;;;4.63;4.10;;;;;;;;;;5030982;28;20065;-74
2022/07/22 08:51:55;;;;;;;6.50;4.65;;;;;;;;;;5031154;28;20360;-75
2022/07/22 08:54:21;;;;;;;7.50;4.25;;;;;;;;;;5031808;28;20131;-76
2022/07/22 08:56:50;;;;;;;5.43;4.20;;;;;;;;;;5030039;28;20041;-78
2022/07/22 08:59:16;;;;;;;5.32;4.13;;;;;;;;;;5030410;28;20449;-76
2022/07/22 09:01:59;;;;;;;6.43;3.92;;;;;;;;;;5030145;28;20040;-76
2022/07/22 09:04:25;;;;;;;5.88;4.07;;;;;;;;;;5035603;28;20060;-83
2022/07/22 09:06:50;;;;;;;4.80;3.75;;;;;;;;;;5031240;28;20064;-82
2022/07/22 09:09:15;;;;;;;5.55;4.43;;;;;;;;;;5031278;28;20094;-77
2022/07/22 09:11:41;;;;;;;8.13;4.05;;;;;;;;;;5030166;28;20059;-75
2022/07/22 09:14:06;;;;;;;6.65;4.07;;;;;;;;;;5029443;28;20033;-79
2022/07/22 09:16:39;;;;;;;9.45;3.97;;;;;;;;;;5029028;28;20032;-76
2022/07/22 09:19:05;;;;;;;6.40;4.38;;;;;;;;;;5031537;28;20097;-80
2022/07/22 09:21:30;;;;;;;4.60;3.40;;;;;;;;;;5026079;28;20118;-75
2022/07/22 09:23:56;;;;;;;6.95;3.60;;;;;;;;;;5029226;28;20186;-76
2022/07/22 09:26:31;;;;;;;10.30;4.32;;;;;;;;;;5026799;28;20155;-76
2022/07/22 09:28:57;;;;;;;6.13;4.15;;;;;;;;;;5025603;28;20058;-76
2022/07/22 09:31:30;;;;;;;7.30;3.78;;;;;;;;;;5028528;28;20025;-81
2022/07/22 09:33:56;;;;;;;6.45;4.05;;;;;;;;;;5039846;28;20025;-76
2022/07/22 09:36:21;;;;;;;6.10;3.63;;;;;;;;;;5040245;28;20037;-77
2022/07/22 09:38:46;;;;;;;8.38;4.13;;;;;;;;;;5040427;28;20089;-73
2022/07/22 09:41:13;;;;;;;8.52;4.20;;;;;;;;;;5025311;28;20367;-74
2022/07/22 09:43:39;;;;;;;7.53;3.95;;;;;;;;;;5041038;28;20029;-78
2022/07/22 09:46:04;;;;;;;4.70;3.70;;;;;;;;;;5033368;28;20432;-83
2022/07/22 09:48:29;;;;;;;5.63;3.88;;;;;;;;;;5041788;28;20048;-79
2022/07/22 09:50:56;;;;;;;9.30;4.38;;;;;;;;;;5041232;28;20033;-76
2022/07/22 09:53:23;;;;;;;5.75;4.00;;;;;;;;;;5041216;28;20048;-76
2022/07/22 09:55:49;;;;;;;6.75;4.25;;;;;;;;;;5042966;28;20064;-79
2022/07/22 09:58:15;;;;;;;6.07;3.70;;;;;;;;;;5043016;28;20029;-80
2022/07/22 10:00:41;;;;;;;5.75;3.97;;;;;;;;;;5044740;28;20035;-81
2022/07/22 10:03:07;;;;;;;5.50;3.83;;;;;;;;;;5043799;28;20119;-73
2022/07/22 10:05:41;;;;;;;6.75;3.70;;;;;;;;;;5052333;28;20106;-76
2022/07/22 10:08:06;;;;;;;6.60;3.63;;;;;;;;;;5042814;28;20048;-79
2022/07/22 10:10:33;;;;;;;6.30;3.70;;;;;;;;;;5041153;28;20068;-75
2022/07/22 10:13:00;;;;;;;4.80;3.75;;;;;;;;;;5042448;28;20028;-71
2022/07/22 10:15:26;;;;;;;7.55;3.70;;;;;;;;;;5041485;28;20052;-73
2022/07/22 10:17:56;;;;;;;4.00;3.13;;;;;;;;;;5030131;28;20075;-75
2022/07/22 10:20:23;;;;;;;3.42;3.13;;;;;;;;;;5041719;28;20033;-75
2022/07/22 10:22:50;;;;;;;6.65;3.70;;;;;;;;;;5041294;28;20037;-75
2022/07/22 10:25:18;;;;;;;6.05;3.30;;;;;;;;;;5041588;28;20048;-72
2022/07/22 10:27:45;;;;;;;3.97;2.90;;;;;;;;;;5028266;28;20037;-71
2022/07/22 10:30:10;;;;;;;4.72;3.50;;;;;;;;;;5041018;28;20033;-72
2022/07/22 10:32:36;;;;;;;5.82;3.38;;;;;;;;;;5044010;28;20028;-74
2022/07/22 10:35:02;;;;;;;3.53;3.20;;;;;;;;;;5030810;28;20132;-74
2022/07/22 10:37:33;;;;;;;3.80;3.28;;;;;;;;;;5028849;28;20029;-73
2022/07/22 10:40:15;;;;;;;7.20;3.20;;;;;;;;;;5026715;28;20028;-80
2022/07/22 10:42:59;;;;;;;3.03;2.83;;;;;;;;;;5026281;28;20044;-76
2022/07/22 10:45:25;;;;;;;6.68;2.78;;;;;;;;;;5024743;28;20025;-75
2022/07/22 10:47:52;;;;;;;3.13;2.83;;;;;;;;;;5020446;28;20136;-79
2022/07/22 10:50:35;;;;;;;4.53;2.72;;;;;;;;;;5030931;28;20028;-76
2022/07/22 10:53:01;;;;;;;4.45;2.90;;;;;;;;;;5030292;28;20048;-73
2022/07/22 10:55:26;;;;;;;6.22;3.10;;;;;;;;;;5030207;28;20033;-80
2022/07/22 10:57:51;;;;;;;4.50;2.95;;;;;;;;;;5029556;28;20512;-76
2022/07/22 11:00:17;;;;;;;4.55;2.42;;;;;;;;;;5032959;28;20024;-83
2022/07/22 11:02:42;;;;;;;4.53;3.13;;;;;;;;;;5029854;28;20088;-75
2022/07/22 11:05:08;;;;;;;3.63;2.72;;;;;;;;;;5024273;28;20036;-75
2022/07/22 11:07:34;;;;;;;4.68;2.80;;;;;;;;;;5037189;28;20021;-72
2022/07/22 11:10:09;;;;;;;4.75;2.92;;;;;;;;;;5029466;28;20055;-76
2022/07/22 11:12:35;;;;;;;2.88;2.67;;;;;;;;;;5044022;28;20029;-74
2022/07/22 11:15:00;;;;;;;3.78;2.90;;;;;;;;;;5045554;28;20035;-71
2022/07/22 11:17:26;;;;;;;3.13;2.65;;;;;;;;;;5033110;28;20033;-76
2022/07/22 11:19:52;;;;;;;4.53;2.70;;;;;;;;;;5045261;28;20178;-74
2022/07/22 11:22:17;;;;;;;2.80;2.50;;;;;;;;;;5047548;28;20352;-79
2022/07/22 11:24:47;;;;;;;5.65;3.08;;;;;;;;;;5044508;28;20111;-80
2022/07/22 11:27:16;;;;;;;3.33;2.72;;;;;;;;;;5047626;28;20036;-72
2022/07/22 11:29:44;;;;;;;4.47;3.00;;;;;;;;;;5041564;28;20036;-74
2022/07/22 11:32:10;;;;;;;4.57;3.00;;;;;;;;;;5046164;28;20807;-73
2022/07/22 11:34:45;;;;;;;4.07;3.78;;;;;;;;;;5046985;28;20606;-76
2022/07/22 11:37:11;;;;;;;4.45;2.90;;;;;;;;;;5044973;28;20094;-79
2022/07/22 11:39:36;;;;;;;3.45;3.00;;;;;;;;;;5042423;28;20782;-75
2022/07/22 11:42:02;;;;;;;5.40;2.88;;;;;;;;;;5029436;28;20067;-73
2022/07/22 11:44:29;;;;;;;4.07;2.92;;;;;;;;;;5040255;28;20029;-73
2022/07/22 11:46:58;;;;;;;2.72;2.53;;;;;;;;;;5035290;28;20028;-72
2022/07/22 11:49:24;;;;;;;2.95;2.75;;;;;;;;;;5031082;28;20017;-72
2022/07/22 11:51:50;;;;;;;5.22;2.78;;;;;;;;;;5035330;28;20040;-76
2022/07/22 11:54:16;;;;;;;2.95;2.65;;;;;;;;;;5029640;28;20124;-71
2022/07/22 11:56:41;;;;;;;5.90;2.80;;;;;;;;;;5029687;28;20099;-82
2022/07/22 11:59:08;;;;;;;3.45;3.10;;;;;;;;;;5030831;28;20029;-77
2022/07/22 12:01:34;;;;;;;3.50;3.20;;;;;;;;;;5036299;28;20827;-71
2022/07/22 12:04:04;;;;;;;3.88;2.70;;;;;;;;;;5039770;28;20040;-71
2022/07/22 12:06:33;;;;;;;5.72;2.70;;;;;;;;;;5044124;28;20087;-73
2022/07/22 12:09:07;;;;;;;5.20;3.10;;;;;;;;;;5045295;28;20056;-80
2022/07/22 12:11:34;;;;;;;4.25;2.97;;;;;;;;;;5032300;28;20048;-73
2022/07/22 12:14:04;;;;;;;3.60;3.00;;;;;;;;;;5040804;28;20479;-78
2022/07/22 12:16:30;;;;;;;5.72;3.08;;;;;;;;;;5042673;28;20032;-73
2022/07/22 12:18:57;;;;;;;6.60;3.00;;;;;;;;;;5043449;28;20426;-76
2022/07/22 12:21:23;;;;;;;3.67;2.78;;;;;;;;;;5040376;28;20046;-74
2022/07/22 12:23:52;;;;;;;4.90;3.00;;;;;;;;;;5042733;28;20029;-76
2022/07/22 12:26:17;;;;;;;5.43;2.85;;;;;;;;;;5043558;28;20029;-74
2022/07/22 12:28:43;;;;;;;3.60;2.97;;;;;;;;;;5034466;28;20096;-74
2022/07/22 12:31:08;;;;;;;4.50;3.05;;;;;;;;;;5034916;28;20032;-73
2022/07/22 12:33:33;;;;;;;3.17;2.88;;;;;;;;;;5043871;28;20322;-74
2022/07/22 12:36:00;;;;;;;6.28;3.28;;;;;;;;;;5029928;28;20109;-80
2022/07/22 12:38:26;;;;;;;3.38;2.92;;;;;;;;;;5044257;28;20076;-75
2022/07/22 12:40:51;;;;;;;3.80;2.97;;;;;;;;;;5031939;28;20049;-77
2022/07/22 12:43:17;;;;;;;3.67;2.90;;;;;;;;;;5043658;28;20452;-75
2022/07/22 12:45:42;;;;;;;3.15;2.85;;;;;;;;;;5042278;28;20025;-72
2022/07/22 12:48:09;;;;;;;5.93;3.00;;;;;;;;;;5042922;28;20110;-76
2022/07/22 12:50:36;;;;;;;4.18;2.72;;;;;;;;;;5044001;28;20086;-78
2022/07/22 12:53:11;;;;;;;4.00;3.05;;;;;;;;;;5031150;28;20424;-78
2022/07/22 12:55:38;;;;;;;3.05;2.47;;;;;;;;;;5042480;28;20086;-75
2022/07/22 12:58:04;;;;;;;4.75;2.88;;;;;;;;;;5043421;28;20021;-75
2022/07/22 13:00:31;;;;;;;4.72;3.40;;;;;;;;;;5031163;28;20021;-72
2022/07/22 13:02:56;;;;;;;3.25;2.90;;;;;;;;;;5031477;28;20028;-76
2022/07/22 13:05:22;;;;;;;2.85;2.53;;;;;;;;;;5041889;28;20573;-75
2022/07/22 13:07:47;;;;;;;2.88;2.60;;;;;;;;;;5042678;28;20452;-75
2022/07/22 13:10:13;;;;;;;5.57;2.70;;;;;;;;;;5041756;28;20116;-77
2022/07/22 13:12:39;;;;;;;4.95;3.33;;;;;;;;;;5043285;28;20028;-73
2022/07/22 13:15:05;;;;;;;3.40;3.10;;;;;;;;;;5042752;28;20348;-77
2022/07/22 13:17:30;;;;;;;3.72;2.90;;;;;;;;;;5042480;28;20360;-72
2022/07/22 13:19:55;;;;;;;6.57;3.22;;;;;;;;;;5032688;28;20040;-80
2022/07/22 13:22:20;;;;;;;4.07;2.85;;;;;;;;;;5033189;28;20029;-74
2022/07/22 13:24:46;;;;;;;4.13;3.45;;;;;;;;;;5038648;28;20036;-82
2022/07/22 13:27:11;;;;;;;4.32;2.97;;;;;;;;;;5042313;28;20560;-77
2022/07/22 13:29:37;;;;;;;4.53;2.65;;;;;;;;;;5035616;28;20541;-73
2022/07/22 13:32:02;;;;;;;4.43;3.22;;;;;;;;;;5028099;28;20502;-78
2022/07/22 13:34:27;;;;;;;7.00;3.28;;;;;;;;;;5035872;28;20036;-77
2022/07/22 13:36:53;;;;;;;6.32;3.08;;;;;;;;;;5035053;28;20379;-73
2022/07/22 13:39:18;;;;;;;4.22;2.65;;;;;;;;;;5036297;28;20021;-73
2022/07/22 13:41:43;;;;;;;3.47;3.00;;;;;;;;;;5028452;28;20094;-72
2022/07/22 13:44:09;;;;;;;5.22;3.08;;;;;;;;;;5039556;28;20025;-73
2022/07/22 13:46:35;;;;;;;3.15;2.75;;;;;;;;;;5041876;28;20028;-76
2022/07/22 13:49:00;;;;;;;5.07;3.10;;;;;;;;;;5027474;28;20021;-78
2022/07/22 13:51:25;;;;;;;5.50;3.20;;;;;;;;;;5042169;28;20044;-71
2022/07/22 13:53:51;;;;;;;3.70;3.15;;;;;;;;;;5041949;28;20060;-76
2022/07/22 13:56:16;;;;;;;3.53;2.83;;;;;;;;;;5042849;28;20098;-74
2022/07/22 13:58:41;;;;;;;5.22;3.20;;;;;;;;;;5036679;28;20067;-74
2022/07/22 14:01:09;;;;;;;3.67;2.75;;;;;;;;;;5030096;28;20471;-73
2022/07/22 14:03:35;;;;;;;6.35;3.33;;;;;;;;;;5043081;28;20032;-76
2022/07/22 14:06:00;;;;;;;3.78;2.60;;;;;;;;;;5026969;28;20059;-80
2022/07/22 14:08:25;;;;;;;3.53;3.00;;;;;;;;;;5030310;28;20024;-75
2022/07/22 14:10:51;;;;;;;4.10;3.28;;;;;;;;;;5031022;28;20056;-72
2022/07/22 14:13:16;;;;;;;9.77;3.47;;;;;;;;;;5040630;28;20591;-73
2022/07/22 14:15:41;;;;;;;4.72;2.95;;;;;;;;;;5041085;28;20037;-70
2022/07/22 14:18:07;;;;;;;5.00;3.10;;;;;;;;;;5040985;28;20452;-70
2022/07/22 14:20:33;;;;;;;3.65;2.90;;;;;;;;;;5042188;28;20110;-72
2022/07/22 14:22:58;;;;;;;6.13;3.20;;;;;;;;;;5045384;28;20041;-71
2022/07/22 14:25:24;;;;;;;3.53;3.03;;;;;;;;;;5039008;28;20044;-73
2022/07/22 14:27:49;;;;;;;4.32;3.10;;;;;;;;;;5031750;28;20632;-75
2022/07/22 14:30:15;;;;;;;4.82;3.10;;;;;;;;;;5040584;28;20458;-73
2022/07/22 14:32:40;;;;;;;4.25;3.25;;;;;;;;;;5026975;28;20036;-75